createdAt,value
2023-02-03T00:02:24.530Z,46.72
2023-02-03T00:04:51.837Z,46.90
2023-02-03T00:07:19.327Z,49.00
2023-02-03T00:09:46.694Z,48.13
2023-02-03T00:12:14.386Z,48.83
2023-02-03T00:14:41.705Z,47.58
2023-02-03T00:17:08.971Z,47.60
2023-02-03T00:19:36.209Z,46.95
2023-02-03T00:22:03.499Z,43.38
2023-02-03T00:24:30.813Z,45.40
2023-02-03T00:26:58.213Z,45.28
2023-02-03T00:29:26.055Z,44.13
2023-02-03T00:31:54.495Z,41.92
2023-02-03T00:34:22.128Z,41.53
2023-02-03T00:36:49.711Z,40.03
2023-02-03T00:39:17.035Z,40.80
2023-02-03T00:41:44.297Z,38.65
2023-02-03T00:44:11.598Z,39.00
2023-02-03T00:46:39.691Z,37.65
2023-02-03T00:49:07.229Z,36.38
2023-02-03T00:51:35.782Z,35.90
2023-02-03T00:54:03.218Z,34.42
2023-02-03T00:56:30.606Z,35.60
2023-02-03T00:58:58.044Z,34.72
2023-02-03T01:01:25.514Z,32.22
2023-02-03T01:03:55.984Z,31.77
2023-02-03T01:06:24.381Z,32.40
2023-02-03T01:08:52.034Z,31.58
2023-02-03T01:11:25.139Z,29.65
2023-02-03T01:13:54.591Z,29.23
2023-02-03T01:16:23.493Z,28.83
2023-02-03T01:18:51.868Z,28.50
2023-02-03T01:21:23.952Z,28.15
2023-02-03T01:23:52.051Z,26.83
2023-02-03T01:26:22.194Z,26.45
2023-02-03T01:29:02.124Z,26.58
2023-02-03T01:31:34.915Z,25.17
2023-02-03T01:34:02.546Z,24.27
2023-02-03T01:36:31.895Z,27.23
2023-02-03T01:38:59.685Z,24.83
2023-02-03T01:41:31.835Z,24.55
2023-02-03T01:44:01.264Z,23.17
2023-02-03T01:46:44.662Z,23.70
2023-02-03T01:49:19.854Z,23.33
2023-02-03T01:51:48.805Z,23.65
2023-02-03T01:54:30.161Z,22.90
2023-02-03T01:57:06.207Z,23.90
2023-02-03T01:59:35.901Z,23.15
2023-02-03T02:02:04.744Z,22.80
2023-02-03T02:04:48.719Z,23.42
2023-02-03T02:07:16.685Z,24.02
2023-02-03T02:09:45.925Z,25.08
2023-02-03T02:12:13.207Z,24.92
2023-02-03T02:14:41.961Z,23.73
2023-02-03T02:17:19.862Z,23.20
2023-02-03T02:20:12.084Z,24.85
2023-02-03T02:23:14.659Z,23.92
2023-02-03T02:26:02.659Z,23.90
2023-02-03T02:28:41.763Z,24.67
2023-02-03T02:31:54.009Z,24.33
2023-02-03T02:37:33.322Z,24.17
2023-02-03T02:40:23.981Z,26.63
2023-02-03T02:43:10.246Z,26.17
2023-02-03T02:45:49.120Z,26.83
2023-02-03T02:48:21.841Z,26.67
2023-02-03T02:50:53.518Z,29.27
2023-02-03T02:53:24.701Z,27.85
2023-02-03T02:55:56.628Z,30.05
2023-02-03T03:00:51.955Z,34.15
2023-02-03T03:03:23.950Z,31.15
2023-02-03T03:06:01.564Z,35.00
2023-02-03T03:08:57.041Z,35.58
2023-02-03T03:11:32.143Z,35.13
2023-02-03T03:14:01.948Z,37.35
2023-02-03T03:16:36.148Z,36.80
2023-02-03T03:19:09.047Z,37.83
2023-02-03T03:22:05.441Z,37.25
2023-02-03T03:24:39.303Z,38.85
2023-02-03T03:27:22.235Z,37.90
2023-02-03T03:29:55.358Z,38.25
2023-02-03T03:32:23.305Z,37.28
2023-02-03T03:34:51.621Z,38.03
2023-02-03T03:37:56.438Z,38.17
2023-02-03T03:40:38.783Z,36.40
2023-02-03T03:43:13.315Z,37.60
2023-02-03T03:45:53.012Z,36.85
2023-02-03T03:48:26.277Z,37.28
2023-02-03T03:51:00.566Z,36.15
2023-02-03T03:53:30.169Z,34.83
2023-02-03T03:56:01.656Z,34.20
2023-02-03T03:58:32.143Z,34.20
2023-02-03T04:01:06.586Z,36.20
2023-02-03T04:03:46.133Z,34.00
2023-02-03T04:06:13.810Z,35.45
2023-02-03T04:08:41.163Z,36.00
2023-02-03T04:11:08.724Z,34.90
2023-02-03T04:13:36.091Z,34.33
2023-02-03T04:16:03.390Z,33.38
2023-02-03T04:18:30.719Z,34.22
2023-02-03T04:20:57.963Z,33.88
2023-02-03T04:23:25.220Z,33.88
2023-02-03T04:25:52.532Z,32.70
2023-02-03T04:28:19.765Z,32.35
2023-02-03T04:30:47.030Z,32.42
2023-02-03T04:33:14.331Z,33.50
2023-02-03T04:35:41.647Z,32.85
2023-02-03T04:38:08.905Z,33.33
2023-02-03T04:40:36.147Z,33.80
2023-02-03T04:43:07.961Z,32.83
2023-02-03T04:48:04.540Z,32.08
2023-02-03T04:50:32.225Z,31.20
2023-02-03T04:53:00.453Z,32.42
2023-02-03T04:55:28.774Z,32.03
2023-02-03T04:57:56.822Z,30.92
2023-02-03T05:00:24.444Z,32.25
2023-02-03T05:02:51.813Z,31.50
2023-02-03T05:05:20.651Z,30.85
2023-02-03T05:07:47.927Z,30.48
2023-02-03T05:10:15.414Z,30.75
2023-02-03T05:12:42.726Z,31.33
2023-02-03T05:15:10.344Z,30.17
2023-02-03T05:17:39.980Z,31.58
2023-02-03T05:20:07.887Z,31.60
2023-02-03T05:22:35.665Z,31.50
2023-02-03T05:25:03.870Z,31.05
2023-02-03T05:27:31.368Z,31.95
2023-02-03T05:29:58.649Z,30.27
2023-02-03T05:32:26.000Z,31.80
2023-02-03T05:34:53.183Z,31.13
2023-02-03T05:37:20.456Z,30.50
2023-02-03T05:39:47.889Z,32.58
2023-02-03T05:42:15.152Z,31.70
2023-02-03T05:44:42.500Z,32.05
2023-02-03T05:47:09.998Z,34.08
2023-02-03T05:49:37.351Z,32.85
2023-02-03T05:52:04.598Z,32.22
2023-02-03T05:54:31.826Z,33.75
2023-02-03T05:56:59.181Z,34.97
2023-02-03T05:59:26.517Z,35.83
2023-02-03T06:01:53.850Z,33.83
2023-02-03T06:04:21.195Z,34.03
2023-02-03T06:06:48.496Z,35.67
2023-02-03T06:09:15.855Z,36.20
2023-02-03T06:11:43.233Z,35.13
2023-02-03T06:14:10.542Z,34.90
2023-02-03T06:16:37.799Z,36.13
2023-02-03T06:19:05.193Z,36.65
2023-02-03T06:21:32.547Z,34.40
2023-02-03T06:23:59.961Z,36.92
2023-02-03T06:26:27.368Z,37.78
2023-02-03T06:28:54.632Z,38.40
2023-02-03T06:31:22.048Z,38.72
2023-02-03T06:33:49.511Z,38.53
2023-02-03T06:36:16.777Z,37.03
2023-02-03T06:38:44.261Z,38.58
2023-02-03T06:41:11.633Z,39.17
2023-02-03T06:43:38.889Z,39.78
2023-02-03T06:46:06.298Z,40.97
2023-02-03T06:48:33.652Z,39.72
2023-02-03T06:51:01.570Z,41.47
2023-02-03T06:53:28.925Z,39.53
2023-02-03T06:55:56.283Z,41.28
2023-02-03T06:58:23.521Z,42.83
2023-02-03T07:00:51.507Z,43.33
2023-02-03T07:03:19.253Z,44.00
2023-02-03T07:05:46.697Z,43.45
2023-02-03T07:08:14.127Z,45.88
2023-02-03T07:10:41.871Z,47.80
2023-02-03T07:13:09.257Z,47.58
2023-02-03T07:15:36.667Z,48.28
2023-02-03T07:18:04.233Z,49.38
2023-02-03T07:20:32.898Z,51.45
2023-02-03T07:23:00.199Z,48.65
2023-02-03T07:25:28.055Z,55.55
2023-02-03T07:27:55.483Z,54.97
2023-02-03T07:30:22.913Z,55.22
2023-02-03T07:32:53.187Z,54.58
2023-02-03T07:35:20.817Z,55.78
2023-02-03T07:37:48.283Z,55.88
2023-02-03T07:40:16.177Z,55.20
2023-02-03T07:42:45.883Z,56.28
2023-02-03T07:45:15.315Z,55.50
2023-02-03T07:47:44.014Z,56.20
2023-02-03T07:50:12.016Z,54.75
2023-02-03T07:52:39.655Z,53.33
2023-02-03T07:55:07.447Z,56.72
2023-02-03T07:57:35.019Z,53.95
2023-02-03T08:00:02.554Z,53.22
2023-02-03T08:02:39.951Z,51.55
2023-02-03T08:05:07.576Z,53.97
2023-02-03T08:07:35.368Z,52.33
2023-02-03T08:10:02.940Z,53.20
2023-02-03T08:12:30.358Z,52.67
2023-02-03T08:14:57.730Z,54.60
2023-02-03T08:17:25.336Z,54.35
2023-02-03T08:19:52.628Z,54.70
2023-02-03T08:22:19.944Z,54.53
2023-02-03T08:24:48.206Z,55.70
2023-02-03T08:27:18.300Z,56.53
2023-02-03T08:29:46.325Z,55.00
2023-02-03T08:32:16.769Z,54.00
2023-02-03T08:34:44.885Z,53.30
2023-02-03T08:37:13.434Z,53.33
2023-02-03T08:39:41.007Z,55.40
2023-02-03T08:42:08.524Z,55.85
2023-02-03T08:44:36.016Z,54.22
2023-02-03T08:47:03.371Z,55.45
2023-02-03T08:49:31.423Z,52.97
2023-02-03T08:51:59.404Z,51.28
2023-02-03T08:54:26.859Z,48.78
2023-02-03T08:56:54.324Z,48.05
2023-02-03T08:59:21.743Z,50.50
2023-02-03T09:01:49.247Z,48.17
2023-02-03T09:04:19.421Z,49.05
2023-02-03T09:06:50.385Z,49.72
2023-02-03T09:09:17.879Z,50.13
2023-02-03T09:11:45.404Z,52.13
2023-02-03T09:14:12.876Z,51.60
2023-02-03T09:16:40.399Z,50.28
2023-02-03T10:21:00.351Z,74.95
2023-02-03T10:23:37.972Z,79.88
2023-02-03T10:26:13.046Z,79.05
2023-02-03T10:28:47.331Z,77.95
2023-02-03T10:31:20.738Z,74.53
2023-02-03T10:33:50.092Z,69.95
2023-02-03T10:36:22.254Z,69.82
2023-02-03T10:38:52.420Z,64.10
2023-02-03T10:41:21.541Z,64.18
2023-02-03T10:43:51.837Z,62.95
2023-02-03T10:46:31.509Z,63.28
2023-02-03T10:48:59.264Z,60.63
2023-02-03T10:51:31.913Z,59.58
2023-02-03T10:54:00.951Z,60.95
2023-02-03T10:56:39.760Z,59.38
2023-02-03T10:59:09.209Z,59.05
2023-02-03T11:01:46.972Z,57.17
2023-02-03T11:04:29.395Z,56.28
2023-02-03T11:07:02.729Z,55.05
2023-02-03T11:09:39.567Z,58.38
2023-02-03T11:12:16.424Z,55.97
2023-02-03T11:14:46.708Z,56.50
2023-02-03T11:17:29.730Z,55.33
2023-02-03T11:20:17.550Z,54.83
2023-02-03T11:22:45.435Z,56.70
2023-02-03T11:25:22.114Z,57.45
2023-02-03T11:27:49.571Z,57.45
2023-02-03T11:30:24.624Z,57.30
2023-02-03T11:32:53.642Z,56.95
2023-02-03T11:35:24.074Z,53.20
2023-02-03T11:37:54.764Z,56.05
2023-02-03T11:40:29.054Z,54.25
2023-02-03T11:42:56.637Z,54.78
2023-02-03T11:45:42.111Z,56.85
2023-02-03T11:48:43.618Z,53.80
2023-02-03T11:51:40.340Z,51.57
2023-02-03T11:54:30.675Z,52.67
2023-02-03T11:57:45.894Z,51.88
2023-02-03T12:00:44.165Z,46.70
2023-02-03T12:03:34.973Z,44.42
2023-02-03T12:06:13.353Z,45.92
2023-02-03T12:09:17.955Z,44.80
2023-02-03T12:12:00.232Z,45.53
2023-02-03T12:14:46.271Z,44.38
2023-02-03T12:17:13.615Z,44.85
2023-02-03T12:20:00.642Z,44.38
2023-02-03T12:22:48.998Z,45.88
2023-02-03T12:25:29.248Z,47.63
2023-02-03T12:28:01.620Z,46.85
2023-02-03T12:30:34.270Z,46.38
2023-02-03T12:33:10.673Z,44.72
2023-02-03T12:35:46.733Z,45.42
2023-02-03T12:38:25.187Z,43.55
2023-02-03T12:41:07.755Z,45.03
2023-02-03T12:43:42.116Z,44.22
2023-02-03T12:46:18.562Z,44.00
2023-02-03T12:49:04.386Z,42.30
2023-02-03T12:51:45.403Z,42.72
2023-02-03T12:54:49.620Z,41.90
2023-02-03T12:57:39.583Z,42.03
2023-02-03T13:00:28.172Z,42.70
2023-02-03T13:03:13.262Z,43.90
2023-02-03T13:05:40.503Z,40.75
2023-02-03T13:08:31.427Z,44.85
2023-02-03T13:11:37.038Z,43.55
2023-02-03T13:14:18.466Z,47.40
2023-02-03T13:16:55.349Z,49.65
2023-02-03T13:19:27.356Z,50.90
2023-02-03T13:21:55.221Z,54.38
2023-02-03T13:24:28.280Z,49.50
2023-02-03T13:27:14.135Z,50.38
2023-02-03T13:29:59.252Z,49.70
2023-02-03T13:32:55.492Z,53.88
2023-02-03T13:35:45.524Z,52.00
2023-02-03T13:38:40.864Z,53.05
2023-02-03T13:41:25.766Z,55.25
2023-02-03T13:43:54.176Z,52.88
2023-02-03T13:49:06.068Z,52.15
2023-02-03T13:51:38.027Z,55.25
2023-02-03T13:54:15.627Z,55.70
2023-02-03T13:56:53.213Z,54.92
2023-02-03T13:59:33.031Z,54.72
2023-02-03T14:02:19.543Z,55.30
2023-02-03T14:04:47.005Z,49.17
2023-02-03T14:07:34.944Z,46.33
2023-02-03T14:10:08.274Z,45.28
2023-02-03T14:12:37.584Z,42.72
2023-02-03T14:15:21.217Z,43.72
2023-02-03T14:17:48.492Z,41.17
2023-02-03T14:20:28.106Z,42.63
2023-02-03T14:23:01.902Z,43.28
2023-02-03T14:25:29.920Z,48.95
2023-02-03T14:28:05.891Z,45.65
2023-02-03T14:30:33.605Z,50.30
2023-02-03T14:33:05.310Z,48.55
2023-02-03T14:35:42.468Z,48.55
2023-02-03T14:38:15.782Z,52.03
2023-02-03T14:41:02.498Z,49.88
2023-02-03T14:43:57.442Z,50.22
2023-02-03T14:47:03.527Z,55.53
2023-02-03T14:49:49.790Z,53.65
2023-02-03T14:52:53.875Z,54.13
2023-02-03T14:55:44.289Z,53.20
2023-02-03T14:58:38.305Z,56.17
2023-02-03T15:01:08.352Z,54.88
2023-02-03T15:03:37.892Z,54.70
2023-02-03T15:06:05.783Z,54.75
2023-02-03T15:08:43.035Z,54.83
2023-02-03T15:11:21.995Z,54.88
2023-02-03T15:13:49.409Z,56.17
2023-02-03T15:16:21.019Z,56.10
2023-02-03T15:18:56.233Z,57.80
2023-02-03T15:21:23.787Z,59.85
2023-02-03T15:23:52.044Z,58.72
2023-02-03T15:26:27.454Z,60.80
2023-02-03T15:29:02.681Z,56.30
2023-02-03T15:31:41.840Z,43.45
2023-02-03T15:34:25.787Z,43.50
2023-02-03T15:36:57.650Z,48.25
2023-02-03T15:42:38.684Z,49.72
2023-02-03T15:45:29.407Z,52.75
2023-02-03T15:48:19.888Z,56.00
2023-02-03T15:51:24.346Z,55.75
2023-02-03T15:54:08.997Z,59.30
2023-02-03T15:56:48.351Z,61.80
2023-02-03T15:59:26.912Z,57.72
2023-02-03T16:01:54.606Z,63.10
2023-02-03T16:04:24.477Z,65.00
2023-02-03T16:06:54.053Z,64.40
2023-02-03T16:09:39.630Z,65.32
2023-02-03T16:12:25.547Z,65.78
2023-02-03T16:14:55.109Z,63.53
2023-02-03T16:17:36.696Z,63.40
2023-02-03T16:20:13.051Z,63.92
2023-02-03T16:23:19.238Z,65.35
2023-02-03T16:26:02.720Z,63.63
2023-02-03T16:28:48.632Z,64.18
2023-02-03T16:31:36.582Z,63.60
2023-02-03T16:34:34.158Z,65.15
2023-02-03T16:37:20.613Z,64.03
2023-02-03T16:40:06.709Z,64.10
2023-02-03T16:42:58.607Z,64.80
2023-02-03T16:45:44.956Z,66.65
2023-02-03T16:48:31.206Z,61.35
2023-02-03T16:51:05.083Z,62.83
2023-02-03T16:53:33.224Z,64.75
2023-02-03T16:56:04.370Z,65.03
2023-02-03T16:58:32.268Z,66.68
2023-02-03T17:01:01.554Z,64.97
2023-02-03T17:03:29.519Z,62.08
2023-02-03T17:05:57.603Z,63.40
2023-02-03T17:08:26.300Z,64.75
2023-02-03T17:10:53.873Z,63.35
2023-02-03T17:13:22.446Z,64.28
2023-02-03T17:15:55.062Z,63.50
2023-02-03T17:18:22.416Z,64.00
2023-02-03T17:20:49.828Z,63.42
2023-02-03T17:23:17.781Z,61.22
2023-02-03T17:25:47.598Z,63.53
2023-02-03T17:28:15.241Z,65.57
2023-02-03T17:30:42.874Z,62.78
2023-02-03T17:33:14.106Z,63.88
2023-02-03T17:35:43.565Z,59.25
2023-02-03T17:38:12.694Z,55.58
2023-02-03T17:54:28.442Z,47.72
2023-02-03T17:56:55.811Z,52.30
2023-02-03T17:59:23.411Z,51.60
2023-02-03T18:01:50.732Z,51.22
2023-02-03T18:04:18.131Z,54.20
2023-02-03T18:06:46.396Z,53.95
2023-02-03T18:09:16.764Z,57.60
2023-02-03T18:11:45.809Z,56.17
2023-02-03T18:14:15.959Z,55.55
2023-02-03T18:16:44.527Z,55.40
2023-02-03T18:19:14.752Z,55.72
2023-02-03T18:21:43.336Z,58.10
2023-02-03T18:24:13.130Z,55.63
2023-02-03T18:26:50.551Z,57.05
2023-02-03T18:29:18.778Z,56.47
2023-02-03T18:31:46.856Z,57.75
2023-02-03T18:34:15.489Z,57.58
2023-02-03T18:36:42.916Z,61.15
2023-02-03T18:39:12.413Z,60.13
2023-02-03T18:41:40.528Z,59.83
2023-02-03T18:44:08.025Z,61.20
2023-02-03T18:46:35.542Z,61.22
2023-02-03T18:49:03.364Z,59.38
2023-02-03T18:51:30.808Z,59.67
2023-02-03T18:53:59.675Z,60.88
2023-02-03T18:56:35.137Z,63.42
2023-02-03T18:59:08.052Z,63.17
2023-02-03T19:01:36.161Z,60.30
2023-02-03T19:04:03.822Z,62.85
2023-02-03T19:06:32.881Z,62.13
2023-02-03T19:09:00.880Z,60.65
2023-02-03T19:11:28.612Z,64.25
2023-02-03T19:13:55.967Z,62.72
2023-02-03T19:16:23.449Z,64.63
2023-02-03T19:18:50.911Z,62.35
2023-02-03T19:21:18.224Z,63.75
2023-02-03T19:23:45.559Z,63.03
2023-02-03T19:26:12.946Z,64.40
2023-02-03T19:28:41.302Z,64.60
2023-02-03T19:31:10.321Z,60.75
2023-02-03T19:33:38.151Z,52.50
2023-02-03T19:36:47.158Z,52.92
2023-02-03T19:39:15.175Z,50.13
2023-02-03T19:41:42.807Z,51.33
2023-02-03T19:44:10.422Z,51.90
2023-02-03T19:46:38.279Z,56.42
2023-02-03T19:49:06.724Z,52.75
2023-02-03T19:51:34.951Z,53.30
2023-02-03T19:54:03.022Z,54.92
2023-02-03T19:56:30.674Z,54.85
2023-02-03T19:58:59.032Z,52.97
2023-02-03T20:01:27.412Z,54.55
2023-02-03T20:03:55.061Z,54.20
2023-02-03T20:06:23.445Z,55.65
2023-02-03T20:08:51.159Z,55.45
2023-02-03T20:11:22.437Z,54.17
2023-02-03T20:13:50.189Z,54.38
2023-02-03T20:16:17.941Z,54.97
2023-02-03T20:18:45.732Z,54.38
2023-02-03T20:21:16.387Z,55.47
2023-02-03T20:23:44.112Z,56.45
2023-02-03T20:26:13.109Z,54.75
2023-02-03T20:28:42.108Z,53.92
2023-02-03T20:31:09.974Z,55.33
2023-02-03T20:33:37.679Z,57.05
2023-02-03T20:36:05.535Z,53.92
2023-02-03T20:38:33.480Z,56.08
2023-02-03T20:41:01.331Z,58.25
2023-02-03T20:43:29.138Z,58.70
2023-02-03T20:45:56.943Z,55.17
2023-02-03T20:48:25.627Z,55.78
2023-02-03T20:50:53.823Z,56.75
2023-02-03T20:53:22.850Z,55.47
2023-02-03T20:55:51.124Z,57.65
2023-02-03T20:58:22.035Z,58.28
2023-02-03T21:00:49.820Z,59.22
2023-02-03T21:03:37.119Z,59.38
2023-02-03T21:06:13.324Z,58.42
2023-02-03T21:08:41.238Z,58.10
2023-02-03T21:11:16.582Z,56.90
2023-02-03T21:13:45.469Z,59.28
2023-02-03T21:16:25.343Z,57.42
2023-02-03T21:18:54.894Z,59.80
2023-02-03T21:21:52.333Z,58.35
2023-02-03T21:24:26.362Z,58.88
2023-02-03T21:26:54.464Z,57.00
2023-02-03T21:29:26.800Z,59.08
2023-02-03T21:31:54.945Z,60.70
2023-02-03T21:34:22.670Z,61.45
2023-02-03T21:36:50.348Z,61.65
2023-02-03T21:39:28.818Z,61.00
2023-02-03T21:41:57.470Z,60.90
2023-02-03T21:44:43.664Z,61.47
2023-02-03T21:47:18.799Z,62.05
2023-02-03T21:49:46.472Z,59.13
2023-02-03T21:52:14.480Z,58.78
2023-02-03T21:54:44.309Z,59.10
2023-02-03T21:57:15.548Z,59.80
2023-02-03T21:59:46.881Z,60.10
2023-02-03T22:02:37.526Z,59.05
2023-02-03T22:05:05.331Z,59.20
2023-02-03T22:07:32.965Z,61.55
2023-02-03T22:10:00.653Z,61.55
2023-02-03T22:12:28.316Z,60.08
2023-02-03T22:14:55.969Z,59.70
2023-02-03T22:17:23.625Z,57.63
2023-02-03T22:19:51.214Z,59.28
2023-02-03T22:22:18.858Z,57.53
2023-02-03T22:24:46.524Z,59.17
2023-02-03T22:27:14.129Z,59.65
2023-02-03T22:29:41.856Z,57.47
2023-02-03T22:32:09.503Z,60.83
2023-02-03T22:34:37.190Z,59.88
2023-02-03T22:37:04.819Z,60.15
2023-02-03T22:39:32.475Z,61.85
2023-02-03T22:42:00.162Z,60.38
2023-02-03T22:44:27.799Z,59.50
2023-02-03T22:46:55.499Z,62.42
2023-02-03T22:49:23.118Z,60.30
2023-02-03T22:51:50.755Z,61.60
2023-02-03T22:54:18.338Z,60.10
2023-02-03T22:56:46.017Z,60.20
2023-02-03T22:59:13.667Z,58.67
2023-02-03T23:01:41.263Z,63.40
2023-02-03T23:04:08.946Z,62.50
2023-02-03T23:06:36.495Z,63.08
2023-02-03T23:09:04.242Z,62.50
2023-02-03T23:11:31.865Z,62.47
2023-02-03T23:13:59.696Z,60.95
2023-02-03T23:16:27.310Z,60.42
2023-02-03T23:18:55.145Z,63.17
2023-02-03T23:21:22.777Z,62.83
2023-02-03T23:23:50.335Z,62.38
2023-02-03T23:26:17.948Z,60.92
2023-02-03T23:28:45.572Z,62.00
2023-02-03T23:31:15.278Z,62.25
2023-02-03T23:34:03.196Z,61.35
2023-02-03T23:36:30.837Z,60.33
2023-02-03T23:38:58.528Z,62.22
2023-02-03T23:41:26.327Z,63.17
2023-02-03T23:43:53.948Z,61.75
2023-02-03T23:46:21.573Z,62.10
2023-02-03T23:48:49.139Z,62.83
2023-02-03T23:51:16.728Z,58.90
2023-02-03T23:53:44.315Z,62.90
2023-02-03T23:56:13.786Z,63.80
2023-02-03T23:58:41.408Z,62.65
